Hays, Kansas
Current Conditions -  °F | °C
As of 10:15 AM on Thursday 29 Jan 2015 (Local Time) from KHYS Reporting Station
Clear Clear  
Wind Chill: 30°   Ceiling: Unl
Heat Index: 39°   Visibility: 10mi
Dew Point: 23°   Wind: 20mph
Humidity: 52%   Direction: 330°NNW
Pressure: 30.48"   Gusts: 25mph
Location:  38.87°N, 99.33°W
Report Text: KHYS 291615Z AUTO 33017G22KT 10SM CLR 04/M05 A3048 RMK AO1
Loading
Personal Weather Stations






























Interactive Weather Map New forecast layout! Learn more

10-Day Weather Forecast

Advertisements
Track Severe Weather on mobile